Time;durP1;ratioP1;P1;durP2;ratioP2;P2;SDS_P1;SDS_P2;PMS_P1;PMS_P2;Temp;Humidity;BMP_temperature;BMP_pressure;BME280_temperature;BME280_humidity;BME280_pressure;Samples;Min_cycle;Max_cycle;Signal;HPM_P1;HPM_P2
2023/06/17 00:02:03;;;;;;;8.03;7.33;;;18.70;90.40;;;;;;6122038;23;20453;-76
2023/06/17 00:04:30;;;;;;;8.50;7.77;;;18.70;90.50;;;;;;6113509;23;20523;-76
2023/06/17 00:06:57;;;;;;;8.10;7.37;;;18.60;90.80;;;;;;6118983;23;20544;-77
2023/06/17 00:09:26;;;;;;;8.23;7.53;;;18.70;91.10;;;;;;6092335;23;20862;-76
2023/06/17 00:11:56;;;;;;;8.67;8.03;;;18.70;91.50;;;;;;6100075;23;20928;-77
2023/06/17 00:14:24;;;;;;;8.67;7.97;;;18.60;91.90;;;;;;6113675;23;20809;-76
2023/06/17 00:16:51;;;;;;;9.10;8.40;;;18.60;92.40;;;;;;6115968;23;20476;-76
2023/06/17 00:19:20;;;;;;;7.70;7.13;;;18.60;92.70;;;;;;6111795;23;20473;-76
2023/06/17 00:21:49;;;;;;;8.63;7.93;;;18.50;92.90;;;;;;6116683;23;20433;-76
2023/06/17 00:24:16;;;;;;;8.50;7.80;;;18.50;93.10;;;;;;6118320;23;20849;-76
2023/06/17 00:26:43;;;;;;;8.33;7.57;;;18.40;93.20;;;;;;6118615;23;20520;-76
2023/06/17 00:29:12;;;;;;;8.53;7.77;;;18.30;93.80;;;;;;6117388;23;20473;-76
2023/06/17 00:31:39;;;;;;;9.30;8.50;;;18.20;94.20;;;;;;6110237;23;20882;-76
2023/06/17 00:34:06;;;;;;;8.87;8.07;;;18.10;94.50;;;;;;6119287;23;21015;-76
2023/06/17 00:36:33;;;;;;;7.70;7.00;;;18.00;95.00;;;;;;6112673;23;20507;-76
2023/06/17 00:39:00;;;;;;;8.60;7.90;;;17.90;95.40;;;;;;6118138;23;20865;-76
2023/06/17 00:41:27;;;;;;;8.23;7.47;;;17.70;96.30;;;;;;6118919;23;20441;-76
2023/06/17 00:43:55;;;;;;;9.73;7.67;;;17.50;97.20;;;;;;6119235;23;20550;-76
2023/06/17 00:46:38;;;;;;;8.40;7.70;;;17.40;98.10;;;;;;6117396;23;20442;-76
2023/06/17 00:49:08;;;;;;;8.37;7.70;;;17.30;98.80;;;;;;6109188;23;20445;-76
2023/06/17 00:51:37;;;;;;;8.90;8.20;;;17.20;99.50;;;;;;6117377;23;20524;-76
2023/06/17 00:54:05;;;;;;;8.37;7.77;;;17.20;99.90;;;;;;6104222;23;20438;-76
2023/06/17 00:56:33;;;;;;;8.47;7.67;;;17.10;99.90;;;;;;6123911;23;20536;-76
2023/06/17 00:59:02;;;;;;;8.17;7.37;;;17.10;99.90;;;;;;6117363;23;20473;-76
2023/06/17 01:01:30;;;;;;;8.30;7.60;;;17.00;99.90;;;;;;6119947;23;20988;-76
2023/06/17 01:04:00;;;;;;;7.80;7.20;;;17.00;99.90;;;;;;6117804;23;20438;-76
2023/06/17 01:06:36;;;;;;;8.70;8.00;;;16.90;99.90;;;;;;6098379;23;20933;-76
2023/06/17 01:09:09;;;;;;;7.50;6.90;;;16.90;99.90;;;;;;6119077;23;20472;-76
2023/06/17 01:11:39;;;;;;;7.77;7.17;;;16.90;99.90;;;;;;6118291;23;20434;-76
2023/06/17 01:14:08;;;;;;;8.10;7.30;;;16.80;99.90;;;;;;6119341;23;20432;-76
2023/06/17 01:16:40;;;;;;;7.17;6.57;;;16.80;99.90;;;;;;6112819;23;20938;-76
2023/06/17 01:19:18;;;;;;;7.03;6.53;;;16.70;99.90;;;;;;6105496;23;20449;-76
2023/06/17 01:21:48;;;;;;;6.77;6.07;;;16.80;99.90;;;;;;6113846;23;20783;-76
2023/06/17 01:24:29;;;;;;;6.90;6.30;;;16.70;99.90;;;;;;6116084;23;20471;-76
2023/06/17 01:26:59;;;;;;;7.43;6.83;;;16.70;99.90;;;;;;6105883;23;20529;-76
2023/06/17 01:29:29;;;;;;;7.47;6.87;;;16.70;99.90;;;;;;6121703;23;20473;-77
2023/06/17 01:31:57;;;;;;;7.83;7.13;;;16.70;99.90;;;;;;6125438;23;20437;-76
2023/06/17 01:34:32;;;;;;;6.90;6.40;;;16.70;99.90;;;;;;6120267;23;20456;-76
2023/06/17 01:37:01;;;;;;;8.03;7.33;;;16.70;99.90;;;;;;6112488;23;20979;-76
2023/06/17 01:39:33;;;;;;;7.30;6.60;;;16.60;99.90;;;;;;6115623;23;20448;-76
2023/06/17 01:42:01;;;;;;;9.13;7.10;;;16.50;99.90;;;;;;6108561;23;20989;-76
2023/06/17 01:44:29;;;;;;;7.10;6.60;;;16.30;99.90;;;;;;6112679;23;20857;-76
2023/06/17 01:46:56;;;;;;;6.90;6.40;;;16.20;99.90;;;;;;6119673;23;20445;-76
2023/06/17 01:49:23;;;;;;;7.67;6.50;;;16.10;99.90;;;;;;6120736;23;20433;-76
2023/06/17 01:51:50;;;;;;;8.27;7.57;;;16.00;99.90;;;;;;6115426;23;20434;-76
2023/06/17 01:54:17;;;;;;;7.57;6.97;;;16.00;99.90;;;;;;6104487;23;20437;-76
2023/06/17 01:56:46;;;;;;;7.97;7.37;;;15.90;99.90;;;;;;6117357;23;20469;-76
2023/06/17 01:59:13;;;;;;;7.70;7.03;;;15.90;99.90;;;;;;6126620;23;20438;-76
2023/06/17 02:01:40;;;;;;;7.67;7.10;;;15.90;99.90;;;;;;6110323;23;20536;-76
2023/06/17 02:04:07;;;;;;;7.70;7.03;;;15.90;99.90;;;;;;6116769;23;20524;-76
2023/06/17 02:06:35;;;;;;;7.33;6.73;;;15.90;99.90;;;;;;6120344;23;20512;-77
2023/06/17 02:09:02;;;;;;;7.60;7.00;;;15.80;99.90;;;;;;6116115;23;20422;-76
2023/06/17 02:11:30;;;;;;;7.60;7.00;;;15.80;99.90;;;;;;6118942;23;20524;-77
2023/06/17 02:13:58;;;;;;;7.83;7.03;;;15.70;99.90;;;;;;6119912;23;20860;-76
2023/06/17 02:16:25;;;;;;;7.40;6.80;;;15.60;99.90;;;;;;6109472;23;20440;-76
2023/06/17 02:18:54;;;;;;;7.90;7.20;;;15.50;99.90;;;;;;6118347;23;20429;-76
2023/06/17 02:21:21;;;;;;;6.80;6.23;;;15.50;99.90;;;;;;6117613;23;20487;-76
2023/06/17 02:23:49;;;;;;;7.13;6.60;;;15.50;99.90;;;;;;6119409;23;20480;-76
2023/06/17 02:26:16;;;;;;;7.60;7.00;;;15.40;99.90;;;;;;6096647;23;20441;-76
2023/06/17 02:28:44;;;;;;;7.30;6.70;;;15.40;99.90;;;;;;6120196;23;20971;-77
2023/06/17 02:31:13;;;;;;;7.07;6.57;;;15.40;99.90;;;;;;6116205;23;20519;-77
2023/06/17 02:33:40;;;;;;;7.53;6.93;;;15.30;99.90;;;;;;6110574;23;20921;-77
2023/06/17 02:36:07;;;;;;;7.00;6.40;;;15.30;99.90;;;;;;6117812;23;20504;-77
2023/06/17 02:38:34;;;;;;;7.97;7.30;;;15.30;99.90;;;;;;6117801;23;20881;-77
2023/06/17 02:41:01;;;;;;;7.97;7.27;;;15.20;99.90;;;;;;6117451;23;20520;-77
2023/06/17 02:43:28;;;;;;;6.80;6.30;;;15.20;99.90;;;;;;6113433;23;20433;-76
2023/06/17 02:45:55;;;;;;;7.30;6.70;;;15.10;99.90;;;;;;6119552;23;20430;-76
2023/06/17 02:48:24;;;;;;;7.60;7.00;;;15.10;99.90;;;;;;6116433;23;20466;-76
2023/06/17 02:50:53;;;;;;;7.80;7.20;;;15.00;99.90;;;;;;6082307;23;21029;-77
2023/06/17 02:53:20;;;;;;;7.90;7.20;;;14.90;99.90;;;;;;6090494;23;20434;-76
2023/06/17 02:55:49;;;;;;;6.97;6.47;;;14.80;99.90;;;;;;6105221;23;20441;-77
2023/06/17 02:58:18;;;;;;;7.90;7.20;;;14.80;99.90;;;;;;6114445;23;20484;-76
2023/06/17 03:00:46;;;;;;;8.20;7.20;;;14.80;99.90;;;;;;6118657;23;20424;-76
2023/06/17 03:03:13;;;;;;;7.57;6.93;;;14.70;99.90;;;;;;6121967;23;20450;-76
2023/06/17 03:05:43;;;;;;;7.43;6.93;;;14.60;99.90;;;;;;6111157;23;22115;-77
2023/06/17 03:08:10;;;;;;;7.93;7.13;;;14.60;99.90;;;;;;6090882;23;20453;-76
2023/06/17 03:10:37;;;;;;;7.37;6.77;;;14.60;99.90;;;;;;6114601;23;20462;-76
2023/06/17 03:13:04;;;;;;;7.50;6.90;;;14.60;99.90;;;;;;6111476;23;20516;-76
2023/06/17 03:15:32;;;;;;;7.97;7.37;;;14.40;99.90;;;;;;6100005;23;20519;-76
2023/06/17 03:17:59;;;;;;;7.70;7.10;;;14.40;99.90;;;;;;6117381;23;20986;-75
2023/06/17 03:20:28;;;;;;;7.27;6.67;;;14.30;99.90;;;;;;6093677;23;20439;-76
2023/06/17 03:22:56;;;;;;;7.43;6.73;;;14.20;99.90;;;;;;6113317;23;20447;-76
2023/06/17 03:25:24;;;;;;;8.13;7.43;;;14.20;99.90;;;;;;6120317;23;20509;-76
2023/06/17 03:27:51;;;;;;;8.47;7.77;;;14.10;99.90;;;;;;6120074;23;20522;-76
2023/06/17 03:30:18;;;;;;;7.77;7.17;;;14.00;99.90;;;;;;6116444;23;20447;-75
2023/06/17 03:32:45;;;;;;;7.87;7.17;;;14.00;99.90;;;;;;6101385;23;20437;-75
2023/06/17 03:35:13;;;;;;;7.67;7.07;;;14.00;99.90;;;;;;6114143;23;20497;-75
2023/06/17 03:37:40;;;;;;;8.03;7.33;;;14.00;99.90;;;;;;6117522;23;20494;-75
2023/06/17 03:40:11;;;;;;;7.77;7.17;;;14.00;99.90;;;;;;6117391;23;20446;-74
2023/06/17 03:42:37;;;;;;;6.80;6.30;;;13.90;99.90;;;;;;6109957;23;20486;-75
2023/06/17 03:45:05;;;;;;;7.83;7.13;;;13.90;99.90;;;;;;6117545;23;20451;-74
2023/06/17 03:47:32;;;;;;;7.27;6.67;;;13.90;99.90;;;;;;6108794;23;20466;-74
2023/06/17 03:49:59;;;;;;;7.23;6.63;;;13.90;99.90;;;;;;6115544;23;20438;-75
2023/06/17 03:52:26;;;;;;;7.57;6.93;;;14.00;99.90;;;;;;6119141;23;20522;-74
2023/06/17 03:54:54;;;;;;;7.60;6.83;;;14.00;99.90;;;;;;6119802;23;20478;-75
2023/06/17 03:57:23;;;;;;;6.57;6.07;;;14.00;99.90;;;;;;6113294;23;20902;-74
2023/06/17 03:59:50;;;;;;;7.37;6.87;;;14.00;99.90;;;;;;6094608;23;20438;-74
2023/06/17 04:02:17;;;;;;;8.30;7.60;;;14.00;99.90;;;;;;6110885;23;20544;-75
2023/06/17 04:04:44;;;;;;;7.40;6.80;;;14.10;99.90;;;;;;6089200;23;20453;-75
2023/06/17 04:07:11;;;;;;;8.00;7.30;;;14.10;99.90;;;;;;6118906;23;20452;-75
2023/06/17 04:09:39;;;;;;;7.20;6.60;;;14.10;99.90;;;;;;6107483;23;20441;-75
2023/06/17 04:12:07;;;;;;;7.30;6.70;;;14.20;99.90;;;;;;6112762;23;20451;-75
2023/06/17 04:14:35;;;;;;;6.90;6.40;;;14.20;99.90;;;;;;6119621;23;20505;-75
2023/06/17 04:17:03;;;;;;;7.77;7.17;;;14.20;99.90;;;;;;6102406;23;20537;-74
2023/06/17 04:19:31;;;;;;;8.13;7.40;;;14.20;99.90;;;;;;6105010;23;20435;-75
2023/06/17 04:21:58;;;;;;;8.33;7.63;;;14.20;99.90;;;;;;6116734;23;20964;-74
2023/06/17 04:24:25;;;;;;;7.70;7.10;;;14.20;99.90;;;;;;6118935;23;20447;-75
2023/06/17 04:26:54;;;;;;;8.77;7.97;;;14.20;99.90;;;;;;6112662;23;20897;-75
2023/06/17 04:29:20;;;;;;;8.60;7.90;;;14.20;99.90;;;;;;6117328;23;20447;-75
2023/06/17 04:31:49;;;;;;;8.80;8.10;;;14.30;99.90;;;;;;6098082;23;20444;-74
2023/06/17 04:34:21;;;;;;;8.40;7.67;;;14.30;99.90;;;;;;6113427;23;20429;-75
2023/06/17 04:36:49;;;;;;;8.47;7.77;;;14.30;99.90;;;;;;6120918;23;20445;-74
2023/06/17 04:39:16;;;;;;;8.10;7.50;;;14.40;99.90;;;;;;6117192;23;20526;-75
2023/06/17 04:41:46;;;;;;;9.47;8.77;;;14.40;99.90;;;;;;6113252;23;20543;-75
2023/06/17 04:44:14;;;;;;;8.63;7.90;;;14.50;99.90;;;;;;6117751;23;20441;-75
2023/06/17 04:46:41;;;;;;;9.50;8.40;;;14.60;99.90;;;;;;6105308;23;20580;-74
2023/06/17 04:49:09;;;;;;;8.63;7.87;;;14.60;99.90;;;;;;6109574;23;20420;-74
2023/06/17 04:51:40;;;;;;;9.40;8.60;;;14.70;99.90;;;;;;6117318;23;20433;-75
2023/06/17 04:54:07;;;;;;;9.40;8.70;;;14.70;99.90;;;;;;6117995;23;20453;-74
2023/06/17 04:56:34;;;;;;;9.93;8.90;;;14.60;99.90;;;;;;6114404;23;20849;-74
2023/06/17 04:59:02;;;;;;;9.50;8.77;;;14.60;99.90;;;;;;6113459;23;20464;-75
2023/06/17 05:01:29;;;;;;;9.17;8.17;;;14.60;99.90;;;;;;6118480;23;20838;-75
2023/06/17 05:03:56;;;;;;;9.67;8.83;;;14.60;99.90;;;;;;6108288;23;20437;-74
2023/06/17 05:06:25;;;;;;;9.30;8.50;;;14.70;99.90;;;;;;6103628;23;20465;-75
2023/06/17 05:08:52;;;;;;;10.43;9.53;;;14.80;99.90;;;;;;6115876;23;20437;-75
2023/06/17 05:11:19;;;;;;;9.60;8.80;;;14.80;99.90;;;;;;6107138;23;20461;-72
2023/06/17 05:13:47;;;;;;;9.97;9.00;;;14.80;99.90;;;;;;6098559;23;20462;-75
2023/06/17 05:16:14;;;;;;;9.50;8.60;;;14.90;99.90;;;;;;6087760;23;22062;-75
2023/06/17 05:18:40;;;;;;;9.40;8.50;;;15.00;99.90;;;;;;6084097;23;20467;-75
2023/06/17 05:21:08;;;;;;;9.07;8.37;;;15.10;99.90;;;;;;6087207;23;20540;-73
2023/06/17 05:23:36;;;;;;;9.70;8.93;;;15.20;99.90;;;;;;6093708;23;20444;-74
2023/06/17 05:26:03;;;;;;;8.73;8.00;;;15.30;99.90;;;;;;6088519;23;20440;-72
2023/06/17 05:28:31;;;;;;;9.67;8.77;;;15.40;99.90;;;;;;6102883;23;20967;-76
2023/06/17 05:30:58;;;;;;;8.60;8.00;;;15.50;99.90;;;;;;6108546;23;20497;-74
2023/06/17 05:33:25;;;;;;;8.70;8.00;;;15.60;99.90;;;;;;6105122;23;20429;-73
2023/06/17 05:35:54;;;;;;;9.57;8.80;;;15.70;99.90;;;;;;6096995;23;20446;-74
2023/06/17 05:38:21;;;;;;;8.27;7.53;;;15.80;99.90;;;;;;6085438;23;20531;-76
2023/06/17 05:40:49;;;;;;;9.40;8.60;;;16.00;99.90;;;;;;6110213;23;20429;-75
2023/06/17 05:43:16;;;;;;;9.20;8.50;;;16.10;99.90;;;;;;6100096;23;20438;-73
2023/06/17 05:45:43;;;;;;;8.63;7.93;;;16.10;99.90;;;;;;6103338;23;20456;-74
2023/06/17 05:48:10;;;;;;;8.87;8.17;;;16.20;99.90;;;;;;6108760;23;20465;-74
2023/06/17 05:50:37;;;;;;;8.67;7.97;;;16.30;99.90;;;;;;6107801;23;21007;-75
2023/06/17 05:53:04;;;;;;;8.97;8.07;;;16.60;99.90;;;;;;6103676;23;20433;-75
2023/06/17 05:55:31;;;;;;;9.30;8.20;;;16.50;99.90;;;;;;6107868;23;20473;-75
2023/06/17 05:58:00;;;;;;;9.63;8.87;;;16.60;99.90;;;;;;6109531;23;20480;-75
2023/06/17 06:00:27;;;;;;;8.77;8.00;;;16.70;99.90;;;;;;6097086;23;20513;-75
2023/06/17 06:02:54;;;;;;;9.00;8.30;;;16.80;99.90;;;;;;6103872;23;20427;-75
2023/06/17 06:05:21;;;;;;;8.10;7.50;;;16.90;99.90;;;;;;6105661;23;20438;-73
2023/06/17 06:07:48;;;;;;;9.00;8.30;;;17.00;99.90;;;;;;6108352;23;20801;-75
2023/06/17 06:10:15;;;;;;;7.63;7.03;;;17.10;99.90;;;;;;6103821;23;20473;-75
2023/06/17 06:12:42;;;;;;;8.20;7.50;;;17.30;99.90;;;;;;6103217;23;20948;-79
2023/06/17 06:15:11;;;;;;;8.90;8.10;;;17.50;99.90;;;;;;6080697;23;20433;-76
2023/06/17 06:17:38;;;;;;;8.90;8.20;;;17.60;99.90;;;;;;6090648;23;20451;-77
2023/06/17 06:20:06;;;;;;;8.83;8.13;;;17.80;99.90;;;;;;6092099;23;20473;-78
2023/06/17 06:22:33;;;;;;;8.93;8.20;;;17.90;99.90;;;;;;6083102;23;20431;-77
2023/06/17 06:25:00;;;;;;;9.30;8.47;;;18.00;99.90;;;;;;6078934;23;20455;-77
2023/06/17 06:27:27;;;;;;;8.93;8.13;;;18.10;99.90;;;;;;6077326;23;20482;-77
2023/06/17 06:29:54;;;;;;;8.60;7.90;;;18.40;99.90;;;;;;6079701;23;20538;-83
2023/06/17 06:32:22;;;;;;;10.30;8.00;;;18.40;99.90;;;;;;6107939;23;20443;-79
2023/06/17 06:34:50;;;;;;;7.73;7.20;;;18.60;99.90;;;;;;6097541;23;20580;-79
2023/06/17 06:37:17;;;;;;;8.30;7.60;;;18.70;99.90;;;;;;6093266;23;20497;-79
2023/06/17 06:39:44;;;;;;;9.40;8.47;;;18.80;99.90;;;;;;6094186;23;20499;-80
2023/06/17 06:42:12;;;;;;;8.00;7.30;;;19.00;99.90;;;;;;6088271;23;20438;-80
2023/06/17 06:44:39;;;;;;;8.80;8.00;;;19.20;99.90;;;;;;6079986;23;20433;-80
2023/06/17 06:47:06;;;;;;;9.03;8.33;;;19.30;99.90;;;;;;6085346;23;20546;-74
2023/06/17 06:49:35;;;;;;;8.97;8.27;;;19.30;99.90;;;;;;6090002;23;21173;-78
2023/06/17 06:52:02;;;;;;;9.60;8.73;;;19.30;99.90;;;;;;6074790;23;20468;-78
2023/06/17 06:54:29;;;;;;;8.17;7.47;;;19.40;99.90;;;;;;6080869;23;20639;-78
2023/06/17 06:56:56;;;;;;;8.37;7.57;;;19.60;99.90;;;;;;6088637;23;20505;-79
2023/06/17 06:59:23;;;;;;;8.60;7.83;;;19.80;99.90;;;;;;6093588;23;20484;-78
2023/06/17 07:01:50;;;;;;;7.93;7.33;;;19.90;99.90;;;;;;6096571;23;20822;-78
2023/06/17 07:04:18;;;;;;;8.10;7.40;;;20.00;99.90;;;;;;6106194;23;20953;-78
2023/06/17 07:06:47;;;;;;;10.40;8.50;;;20.20;99.90;;;;;;6099127;23;20458;-78
2023/06/17 07:09:14;;;;;;;8.23;7.53;;;20.30;99.90;;;;;;6103068;23;20517;-78
2023/06/17 07:11:41;;;;;;;8.07;7.37;;;20.50;99.90;;;;;;6091459;23;20498;-78
2023/06/17 07:14:08;;;;;;;8.23;7.53;;;20.70;99.90;;;;;;6098216;23;20484;-79
2023/06/17 07:16:35;;;;;;;8.30;7.67;;;20.80;99.90;;;;;;6097797;23;20462;-78
2023/06/17 07:19:03;;;;;;;8.83;8.13;;;21.00;99.90;;;;;;6102965;23;20851;-79
2023/06/17 07:21:50;;;;;;;8.47;7.77;;;21.10;99.90;;;;;;6095079;23;20493;-79
2023/06/17 07:24:17;;;;;;;8.50;7.80;;;21.30;99.90;;;;;;6080648;23;20531;-79
2023/06/17 07:26:45;;;;;;;8.83;8.07;;;21.40;99.90;;;;;;6100777;23;20538;-78
2023/06/17 07:29:12;;;;;;;8.53;7.83;;;21.50;99.90;;;;;;6107634;23;20484;-79
2023/06/17 07:31:39;;;;;;;7.57;6.97;;;21.70;99.90;;;;;;6096485;23;20433;-79
2023/06/17 07:34:06;;;;;;;8.60;7.73;;;21.80;99.90;;;;;;6102912;23;20798;-78
2023/06/17 07:36:33;;;;;;;7.90;7.20;;;22.00;99.90;;;;;;6093357;23;20513;-78
2023/06/17 07:39:03;;;;;;;7.80;7.20;;;22.20;99.90;;;;;;6096984;23;20468;-74
2023/06/17 07:41:30;;;;;;;8.23;7.67;;;22.20;99.90;;;;;;6096600;23;20437;-74
2023/06/17 07:43:58;;;;;;;8.27;7.60;;;22.40;99.90;;;;;;6091856;23;20438;-79
2023/06/17 07:46:26;;;;;;;7.60;6.93;;;22.60;99.90;;;;;;6084238;23;20528;-79
2023/06/17 07:48:53;;;;;;;8.10;7.30;;;22.90;99.60;;;;;;6089813;23;20439;-79
2023/06/17 07:51:20;;;;;;;7.30;6.70;;;23.30;99.00;;;;;;6088156;23;20518;-78
2023/06/17 07:53:47;;;;;;;7.23;6.63;;;23.70;97.90;;;;;;6103310;23;20465;-79
2023/06/17 07:56:15;;;;;;;7.07;6.57;;;24.20;96.60;;;;;;6099673;23;20508;-78
2023/06/17 07:58:43;;;;;;;7.10;6.50;;;24.70;96.00;;;;;;6101855;23;20473;-78
2023/06/17 08:01:11;;;;;;;6.87;6.10;;;25.10;93.50;;;;;;6100947;23;20441;-79
2023/06/17 08:03:38;;;;;;;7.07;6.57;;;25.50;92.60;;;;;;6082218;23;20433;-79
2023/06/17 08:06:05;;;;;;;7.20;6.57;;;25.80;92.60;;;;;;6094514;23;21050;-78
2023/06/17 08:08:33;;;;;;;7.27;6.77;;;26.00;92.40;;;;;;6099459;23;20488;-78
2023/06/17 08:11:00;;;;;;;7.30;6.80;;;26.10;91.20;;;;;;6064664;23;20426;-78
2023/06/17 08:13:28;;;;;;;8.03;7.23;;;26.20;91.20;;;;;;6074157;23;20434;-78
2023/06/17 08:15:55;;;;;;;7.53;6.97;;;26.40;90.50;;;;;;6089211;23;20712;-76
2023/06/17 08:18:22;;;;;;;6.73;6.23;;;26.60;89.20;;;;;;6094813;23;20525;-77
2023/06/17 08:20:49;;;;;;;7.57;6.97;;;26.70;88.60;;;;;;6081551;23;20550;-79
2023/06/17 08:23:16;;;;;;;6.60;6.10;;;26.80;86.50;;;;;;6076522;23;20484;-78
2023/06/17 08:25:43;;;;;;;6.20;5.70;;;27.10;85.80;;;;;;6080273;23;22231;-80
2023/06/17 08:28:11;;;;;;;7.20;6.50;;;27.40;84.30;;;;;;6094357;23;21048;-79
2023/06/17 08:30:40;;;;;;;7.17;6.67;;;27.60;78.30;;;;;;6098297;23;20623;-81
2023/06/17 08:33:06;;;;;;;6.77;6.17;;;27.70;79.30;;;;;;6102734;23;20845;-80
2023/06/17 08:35:33;;;;;;;6.67;6.17;;;27.90;79.80;;;;;;6110025;23;20905;-80
2023/06/17 08:38:01;;;;;;;6.83;6.30;;;28.20;78.00;;;;;;6108985;23;20509;-80
2023/06/17 08:40:28;;;;;;;5.80;5.40;;;28.40;75.80;;;;;;6112058;23;20599;-80
2023/06/17 08:43:01;;;;;;;5.57;5.17;;;28.70;73.40;;;;;;6107532;23;20469;-78
2023/06/17 08:45:28;;;;;;;5.60;5.17;;;28.90;68.90;;;;;;6099156;23;20980;-80
2023/06/17 08:47:57;;;;;;;6.13;5.63;;;29.10;69.30;;;;;;6093699;23;20549;-77
2023/06/17 08:50:25;;;;;;;5.30;4.90;;;29.20;66.10;;;;;;6103714;23;20838;-78
2023/06/17 08:52:53;;;;;;;6.60;6.07;;;29.30;65.20;;;;;;6107481;23;20445;-78
2023/06/17 08:55:21;;;;;;;7.07;6.40;;;29.40;67.40;;;;;;6111734;23;20451;-70
2023/06/17 08:57:50;;;;;;;6.10;5.70;;;29.60;67.40;;;;;;6091012;23;20439;-71
2023/06/17 09:00:18;;;;;;;5.63;5.13;;;29.80;66.40;;;;;;6108007;23;20619;-71
2023/06/17 09:02:46;;;;;;;5.57;5.20;;;30.00;65.80;;;;;;6108530;23;20433;-71
2023/06/17 09:05:15;;;;;;;5.37;4.97;;;30.20;63.80;;;;;;6098425;23;20993;-71
2023/06/17 09:07:42;;;;;;;5.97;5.57;;;30.40;63.60;;;;;;6109797;23;20480;-71
2023/06/17 09:10:10;;;;;;;5.27;4.87;;;30.50;63.20;;;;;;6104574;23;20512;-71
2023/06/17 09:12:38;;;;;;;5.70;5.30;;;30.70;61.80;;;;;;6102028;23;20455;-72
2023/06/17 09:15:07;;;;;;;5.73;5.23;;;30.80;58.40;;;;;;6108013;23;20444;-75
2023/06/17 09:17:37;;;;;;;5.00;4.60;;;31.00;59.50;;;;;;6101257;23;20468;-75
2023/06/17 09:20:10;;;;;;;5.17;4.87;;;31.10;57.70;;;;;;6094569;23;20533;-76
2023/06/17 09:22:40;;;;;;;5.43;5.03;;;31.30;57.30;;;;;;6099378;23;20434;-74
2023/06/17 09:25:11;;;;;;;5.50;5.07;;;31.30;56.30;;;;;;6107391;23;20434;-74
2023/06/17 09:27:45;;;;;;;4.77;4.37;;;31.40;56.30;;;;;;6106116;23;20458;-74
2023/06/17 09:30:14;;;;;;;5.40;5.00;;;31.50;54.00;;;;;;6098747;23;20437;-79
2023/06/17 09:32:44;;;;;;;4.93;4.53;;;31.60;52.80;;;;;;6083740;23;21049;-79
2023/06/17 09:35:15;;;;;;;5.50;5.17;;;31.60;54.60;;;;;;6089573;23;20436;-78
2023/06/17 09:37:45;;;;;;;4.87;4.47;;;31.80;55.00;;;;;;6098357;23;20525;-76
2023/06/17 09:40:13;;;;;;;5.07;4.77;;;32.00;53.80;;;;;;6077851;23;20565;-74
2023/06/17 09:42:42;;;;;;;5.50;5.10;;;32.20;54.30;;;;;;6093936;23;20435;-75
2023/06/17 09:45:12;;;;;;;5.23;4.93;;;32.50;52.30;;;;;;6081952;23;20526;-75
2023/06/17 09:47:40;;;;;;;4.70;4.40;;;32.90;50.00;;;;;;6089046;23;20523;-76
2023/06/17 09:50:11;;;;;;;6.03;5.53;;;32.70;50.80;;;;;;6097178;23;20430;-75
2023/06/17 09:52:40;;;;;;;5.23;4.87;;;32.90;50.70;;;;;;6091372;23;21352;-76
2023/06/17 09:55:10;;;;;;;4.97;4.67;;;32.90;49.10;;;;;;6098878;23;20449;-76
2023/06/17 09:57:39;;;;;;;5.10;4.70;;;32.50;49.10;;;;;;6091889;23;20520;-76
2023/06/17 10:00:10;;;;;;;4.93;4.63;;;32.50;48.40;;;;;;6092346;23;21174;-75
2023/06/17 10:02:39;;;;;;;5.00;4.70;;;32.60;49.60;;;;;;6093594;23;20479;-74
2023/06/17 10:05:10;;;;;;;5.27;4.97;;;32.80;49.80;;;;;;6098339;23;20449;-74
2023/06/17 10:07:39;;;;;;;5.37;4.87;;;33.10;49.00;;;;;;6096872;23;20453;-74
2023/06/17 10:10:10;;;;;;;5.00;4.70;;;33.30;48.50;;;;;;6096025;23;20775;-75
2023/06/17 10:12:39;;;;;;;4.70;4.30;;;33.50;49.20;;;;;;6091867;23;20484;-75
2023/06/17 10:15:08;;;;;;;5.73;5.13;;;33.60;48.80;;;;;;6088751;23;20528;-75
2023/06/17 10:17:37;;;;;;;5.67;5.27;;;33.70;48.00;;;;;;6099494;23;20534;-75
2023/06/17 10:20:07;;;;;;;5.93;5.40;;;33.80;47.30;;;;;;6098108;23;20478;-74
2023/06/17 10:22:37;;;;;;;6.00;4.60;;;33.70;44.80;;;;;;6088267;23;20458;-75
2023/06/17 10:25:05;;;;;;;5.10;4.70;;;33.10;45.00;;;;;;6093632;23;20449;-74
2023/06/17 10:27:34;;;;;;;5.20;4.80;;;32.90;46.50;;;;;;6099935;23;20454;-74
2023/06/17 10:30:01;;;;;;;5.03;4.60;;;32.80;47.30;;;;;;6096344;23;20472;-78
2023/06/17 10:32:28;;;;;;;5.20;4.90;;;33.00;46.70;;;;;;6085293;23;20521;-77
2023/06/17 10:35:12;;;;;;;5.20;4.90;;;33.20;46.80;;;;;;6093602;23;20441;-74
2023/06/17 10:37:42;;;;;;;7.33;5.30;;;33.50;46.90;;;;;;6090866;23;21164;-75
2023/06/17 10:40:25;;;;;;;5.30;5.00;;;34.00;46.70;;;;;;6092890;23;20472;-75
2023/06/17 10:43:18;;;;;;;5.27;4.97;;;34.40;45.80;;;;;;6094086;23;20953;-75
2023/06/17 10:45:50;;;;;;;5.03;4.73;;;34.60;46.10;;;;;;6103123;23;20476;-75
2023/06/17 10:48:20;;;;;;;5.30;4.90;;;34.70;45.90;;;;;;6091116;23;20449;-75
2023/06/17 10:50:52;;;;;;;5.80;5.40;;;34.50;45.70;;;;;;6094295;23;20495;-75
2023/06/17 10:53:28;;;;;;;5.60;5.20;;;34.10;46.70;;;;;;6096917;23;20437;-76
2023/06/17 10:55:56;;;;;;;5.83;5.33;;;33.70;46.70;;;;;;6095267;23;20506;-75
2023/06/17 10:58:30;;;;;;;6.07;5.67;;;33.70;46.60;;;;;;6088358;23;20761;-75
2023/06/17 11:01:02;;;;;;;5.97;5.47;;;33.70;46.10;;;;;;6102221;23;20469;-76
2023/06/17 11:03:29;;;;;;;5.67;5.10;;;33.70;46.30;;;;;;6092046;23;20438;-76
2023/06/17 11:06:01;;;;;;;6.07;5.57;;;33.90;46.50;;;;;;6096843;23;20449;-75
2023/06/17 11:08:29;;;;;;;6.30;5.90;;;34.10;45.60;;;;;;6094174;23;20499;-75
2023/06/17 11:11:08;;;;;;;5.43;4.97;;;34.20;44.80;;;;;;6090838;23;21070;-75
2023/06/17 11:13:37;;;;;;;5.63;5.33;;;34.30;45.20;;;;;;6098561;23;21137;-75
2023/06/17 11:16:05;;;;;;;5.97;5.57;;;34.30;45.20;;;;;;6085460;23;20450;-75
2023/06/17 11:18:36;;;;;;;5.03;4.73;;;34.50;44.90;;;;;;6093880;23;20435;-75
2023/06/17 11:21:04;;;;;;;4.83;4.47;;;34.50;43.90;;;;;;6093852;23;20461;-75
2023/06/17 11:23:33;;;;;;;4.67;4.37;;;34.70;43.50;;;;;;6097005;23;20869;-75
2023/06/17 11:26:01;;;;;;;4.43;4.13;;;34.90;41.00;;;;;;6093262;23;20450;-74
2023/06/17 11:28:28;;;;;;;4.67;4.30;;;35.10;41.40;;;;;;6089502;23;20984;-77
2023/06/17 11:30:57;;;;;;;4.70;4.40;;;35.20;41.80;;;;;;6091688;23;20446;-75
2023/06/17 11:33:24;;;;;;;4.90;4.50;;;35.20;41.00;;;;;;6095710;23;20437;-75
2023/06/17 11:35:53;;;;;;;4.60;4.30;;;34.70;40.10;;;;;;6090245;23;20477;-75
2023/06/17 11:38:22;;;;;;;4.63;4.33;;;34.50;42.30;;;;;;6088640;23;20441;-75
2023/06/17 11:40:55;;;;;;;5.70;5.30;;;34.70;42.60;;;;;;6094093;23;20494;-73
2023/06/17 11:43:26;;;;;;;4.80;4.50;;;35.00;42.50;;;;;;6093333;23;20516;-74
2023/06/17 11:45:56;;;;;;;5.07;4.67;;;35.30;42.30;;;;;;6097220;23;20561;-73
2023/06/17 11:48:29;;;;;;;4.97;4.67;;;35.70;41.50;;;;;;6087664;23;20910;-73
2023/06/17 11:50:57;;;;;;;5.13;4.73;;;36.00;41.70;;;;;;6080369;23;20445;-73
2023/06/17 11:53:34;;;;;;;5.93;4.90;;;35.70;40.80;;;;;;6097380;23;20507;-74
2023/06/17 11:56:08;;;;;;;4.70;4.40;;;35.00;41.60;;;;;;6090642;23;20471;-73
2023/06/17 11:58:38;;;;;;;4.40;4.10;;;34.70;39.30;;;;;;6094204;23;20557;-73
2023/06/17 12:01:06;;;;;;;4.30;3.97;;;33.70;38.80;;;;;;6106187;23;20470;-72
2023/06/17 12:03:34;;;;;;;4.30;3.90;;;32.70;39.80;;;;;;6118242;23;20434;-73
2023/06/17 12:06:02;;;;;;;6.47;4.50;;;32.60;40.90;;;;;;6107245;23;20457;-73
2023/06/17 12:08:33;;;;;;;4.40;4.00;;;32.90;40.60;;;;;;6104953;23;20487;-73
2023/06/17 12:11:04;;;;;;;5.17;4.67;;;33.10;39.50;;;;;;6096177;23;20472;-73
2023/06/17 12:13:39;;;;;;;4.37;4.00;;;32.90;40.60;;;;;;6083434;23;20437;-73
2023/06/17 12:16:10;;;;;;;3.90;3.70;;;32.90;41.20;;;;;;6096149;23;20454;-73
2023/06/17 12:18:48;;;;;;;5.30;4.53;;;32.90;41.10;;;;;;6092282;23;20457;-73
2023/06/17 12:21:15;;;;;;;4.57;4.17;;;33.00;40.60;;;;;;6098351;23;20461;-73
2023/06/17 12:23:43;;;;;;;4.37;3.97;;;33.50;39.40;;;;;;6085320;23;20469;-74
2023/06/17 12:26:10;;;;;;;4.60;4.30;;;33.80;38.00;;;;;;6090219;23;20512;-73
2023/06/17 12:28:37;;;;;;;4.67;4.37;;;34.10;37.70;;;;;;6101845;23;20530;-74
2023/06/17 12:31:04;;;;;;;4.50;4.20;;;34.20;36.50;;;;;;6090483;23;20504;-74
2023/06/17 12:33:31;;;;;;;4.60;4.30;;;33.80;37.30;;;;;;6097912;23;20429;-72
2023/06/17 12:36:00;;;;;;;4.40;4.07;;;33.20;39.10;;;;;;6107866;23;20452;-72
2023/06/17 12:38:31;;;;;;;4.43;4.13;;;33.30;38.80;;;;;;6108201;23;20834;-73
2023/06/17 12:40:59;;;;;;;4.43;4.10;;;33.80;38.70;;;;;;6099178;23;20458;-74
2023/06/17 12:43:26;;;;;;;5.13;4.70;;;34.00;38.50;;;;;;6090875;23;20736;-74
2023/06/17 12:45:54;;;;;;;4.47;4.07;;;34.50;38.80;;;;;;6090951;23;20461;-74
2023/06/17 12:48:21;;;;;;;11.60;4.40;;;35.00;37.50;;;;;;6108649;23;20429;-74
2023/06/17 12:50:48;;;;;;;4.67;4.30;;;35.30;36.40;;;;;;6103198;23;20451;-74
2023/06/17 12:53:17;;;;;;;4.10;3.80;;;35.60;37.30;;;;;;6104267;23;20461;-74